sensor_id;sensor_type;location;lat;lon;timestamp;P1;durP1;ratioP1;P2;durP2;ratioP2
46308;SDS011;32037;50.820;6.494;2022-07-29T00:00:22;1.17;;;0.90;;
46308;SDS011;32037;50.820;6.494;2022-07-29T00:02:50;2.30;;;1.20;;
46308;SDS011;32037;50.820;6.494;2022-07-29T00:05:18;1.23;;;1.13;;
46308;SDS011;32037;50.820;6.494;2022-07-29T00:07:46;1.23;;;0.90;;
46308;SDS011;32037;50.820;6.494;2022-07-29T00:10:14;3.53;;;1.20;;
46308;SDS011;32037;50.820;6.494;2022-07-29T00:12:43;1.13;;;1.03;;
46308;SDS011;32037;50.820;6.494;2022-07-29T00:15:12;2.13;;;1.23;;
46308;SDS011;32037;50.820;6.494;2022-07-29T00:17:40;0.87;;;0.80;;
46308;SDS011;32037;50.820;6.494;2022-07-29T00:20:08;2.63;;;1.43;;
46308;SDS011;32037;50.820;6.494;2022-07-29T00:22:37;1.30;;;0.90;;
46308;SDS011;32037;50.820;6.494;2022-07-29T00:25:08;1.83;;;1.07;;
46308;SDS011;32037;50.820;6.494;2022-07-29T00:27:36;1.80;;;1.07;;
46308;SDS011;32037;50.820;6.494;2022-07-29T00:30:06;1.77;;;1.10;;
46308;SDS011;32037;50.820;6.494;2022-07-29T00:32:35;2.13;;;1.27;;
46308;SDS011;32037;50.820;6.494;2022-07-29T00:35:03;1.03;;;0.90;;
46308;SDS011;32037;50.820;6.494;2022-07-29T00:37:49;1.70;;;1.60;;
46308;SDS011;32037;50.820;6.494;2022-07-29T00:40:18;1.00;;;0.90;;
46308;SDS011;32037;50.820;6.494;2022-07-29T00:42:50;2.10;;;1.20;;
46308;SDS011;32037;50.820;6.494;2022-07-29T00:45:22;1.10;;;0.97;;
46308;SDS011;32037;50.820;6.494;2022-07-29T00:47:50;2.50;;;1.10;;
46308;SDS011;32037;50.820;6.494;2022-07-29T00:50:21;1.70;;;0.97;;
46308;SDS011;32037;50.820;6.494;2022-07-29T00:52:49;2.50;;;1.20;;
46308;SDS011;32037;50.820;6.494;2022-07-29T00:55:18;1.83;;;1.17;;
46308;SDS011;32037;50.820;6.494;2022-07-29T00:57:47;1.40;;;1.10;;
46308;SDS011;32037;50.820;6.494;2022-07-29T01:00:16;3.00;;;1.07;;
46308;SDS011;32037;50.820;6.494;2022-07-29T01:02:47;1.83;;;1.40;;
46308;SDS011;32037;50.820;6.494;2022-07-29T01:05:17;2.03;;;1.20;;
46308;SDS011;32037;50.820;6.494;2022-07-29T01:07:46;1.17;;;0.90;;
46308;SDS011;32037;50.820;6.494;2022-07-29T01:10:16;3.00;;;1.47;;
46308;SDS011;32037;50.820;6.494;2022-07-29T01:12:46;1.90;;;1.50;;
46308;SDS011;32037;50.820;6.494;2022-07-29T01:15:16;0.93;;;0.83;;
46308;SDS011;32037;50.820;6.494;2022-07-29T01:17:45;1.40;;;1.20;;
46308;SDS011;32037;50.820;6.494;2022-07-29T01:20:20;1.33;;;1.23;;
46308;SDS011;32037;50.820;6.494;2022-07-29T01:23:03;2.30;;;1.27;;
46308;SDS011;32037;50.820;6.494;2022-07-29T01:25:54;1.83;;;0.93;;
46308;SDS011;32037;50.820;6.494;2022-07-29T01:28:44;1.27;;;1.17;;
46308;SDS011;32037;50.820;6.494;2022-07-29T01:31:20;0.87;;;0.83;;
46308;SDS011;32037;50.820;6.494;2022-07-29T01:34:07;1.10;;;1.00;;
46308;SDS011;32037;50.820;6.494;2022-07-29T01:36:40;1.60;;;1.10;;
46308;SDS011;32037;50.820;6.494;2022-07-29T01:39:14;1.27;;;1.17;;
46308;SDS011;32037;50.820;6.494;2022-07-29T01:41:48;1.30;;;1.20;;
46308;SDS011;32037;50.820;6.494;2022-07-29T01:44:26;1.10;;;1.00;;
46308;SDS011;32037;50.820;6.494;2022-07-29T01:47:00;1.30;;;1.20;;
46308;SDS011;32037;50.820;6.494;2022-07-29T01:49:35;1.17;;;1.07;;
46308;SDS011;32037;50.820;6.494;2022-07-29T01:52:07;1.70;;;1.40;;
46308;SDS011;32037;50.820;6.494;2022-07-29T01:54:45;1.60;;;1.20;;
46308;SDS011;32037;50.820;6.494;2022-07-29T01:57:18;1.40;;;1.20;;
46308;SDS011;32037;50.820;6.494;2022-07-29T01:59:53;1.17;;;1.07;;
46308;SDS011;32037;50.820;6.494;2022-07-29T02:02:23;1.10;;;1.00;;
46308;SDS011;32037;50.820;6.494;2022-07-29T02:04:53;1.17;;;1.07;;
46308;SDS011;32037;50.820;6.494;2022-07-29T02:07:23;1.03;;;0.93;;
46308;SDS011;32037;50.820;6.494;2022-07-29T02:09:53;1.20;;;1.10;;
46308;SDS011;32037;50.820;6.494;2022-07-29T02:12:22;1.10;;;1.00;;
46308;SDS011;32037;50.820;6.494;2022-07-29T02:14:54;1.47;;;1.10;;
46308;SDS011;32037;50.820;6.494;2022-07-29T02:17:26;1.40;;;1.20;;
46308;SDS011;32037;50.820;6.494;2022-07-29T02:19:59;1.97;;;1.20;;
46308;SDS011;32037;50.820;6.494;2022-07-29T02:22:29;2.07;;;1.23;;
46308;SDS011;32037;50.820;6.494;2022-07-29T02:25:00;3.47;;;1.50;;
46308;SDS011;32037;50.820;6.494;2022-07-29T02:27:29;2.37;;;1.20;;
46308;SDS011;32037;50.820;6.494;2022-07-29T02:30:00;2.43;;;1.20;;
46308;SDS011;32037;50.820;6.494;2022-07-29T02:32:30;2.90;;;1.33;;
46308;SDS011;32037;50.820;6.494;2022-07-29T02:35:01;1.17;;;1.07;;
46308;SDS011;32037;50.820;6.494;2022-07-29T02:37:30;1.33;;;1.17;;
46308;SDS011;32037;50.820;6.494;2022-07-29T02:40:00;2.53;;;1.40;;
46308;SDS011;32037;50.820;6.494;2022-07-29T02:42:29;1.30;;;1.10;;
46308;SDS011;32037;50.820;6.494;2022-07-29T02:45:00;1.60;;;1.10;;
46308;SDS011;32037;50.820;6.494;2022-07-29T02:47:30;1.40;;;0.93;;
46308;SDS011;32037;50.820;6.494;2022-07-29T02:50:08;2.07;;;1.27;;
46308;SDS011;32037;50.820;6.494;2022-07-29T02:52:41;1.57;;;1.30;;
46308;SDS011;32037;50.820;6.494;2022-07-29T02:55:14;2.20;;;1.13;;
46308;SDS011;32037;50.820;6.494;2022-07-29T02:57:47;1.43;;;1.33;;
46308;SDS011;32037;50.820;6.494;2022-07-29T03:00:22;1.30;;;0.80;;
46308;SDS011;32037;50.820;6.494;2022-07-29T03:02:55;2.90;;;1.27;;
46308;SDS011;32037;50.820;6.494;2022-07-29T03:05:26;1.73;;;1.27;;
46308;SDS011;32037;50.820;6.494;2022-07-29T03:07:56;1.23;;;1.13;;
46308;SDS011;32037;50.820;6.494;2022-07-29T03:10:27;1.83;;;1.10;;
46308;SDS011;32037;50.820;6.494;2022-07-29T03:12:56;1.50;;;1.13;;
46308;SDS011;32037;50.820;6.494;2022-07-29T03:15:26;1.60;;;1.50;;
46308;SDS011;32037;50.820;6.494;2022-07-29T03:17:54;1.60;;;0.90;;
46308;SDS011;32037;50.820;6.494;2022-07-29T03:20:23;1.20;;;1.10;;
46308;SDS011;32037;50.820;6.494;2022-07-29T03:22:52;1.70;;;1.23;;
46308;SDS011;32037;50.820;6.494;2022-07-29T03:25:20;1.80;;;1.20;;
46308;SDS011;32037;50.820;6.494;2022-07-29T03:27:48;1.27;;;1.00;;
46308;SDS011;32037;50.820;6.494;2022-07-29T03:30:16;1.37;;;1.27;;
46308;SDS011;32037;50.820;6.494;2022-07-29T03:32:49;1.50;;;1.10;;
46308;SDS011;32037;50.820;6.494;2022-07-29T03:35:18;1.87;;;1.23;;
46308;SDS011;32037;50.820;6.494;2022-07-29T03:37:46;2.47;;;1.10;;
46308;SDS011;32037;50.820;6.494;2022-07-29T03:40:18;1.43;;;1.10;;
46308;SDS011;32037;50.820;6.494;2022-07-29T03:42:49;1.33;;;1.23;;
46308;SDS011;32037;50.820;6.494;2022-07-29T03:45:20;1.73;;;1.00;;
46308;SDS011;32037;50.820;6.494;2022-07-29T03:47:51;1.57;;;1.00;;
46308;SDS011;32037;50.820;6.494;2022-07-29T03:50:26;1.00;;;0.90;;
46308;SDS011;32037;50.820;6.494;2022-07-29T03:52:55;0.93;;;0.87;;
46308;SDS011;32037;50.820;6.494;2022-07-29T03:55:24;1.00;;;0.90;;
46308;SDS011;32037;50.820;6.494;2022-07-29T03:57:53;1.50;;;1.40;;
46308;SDS011;32037;50.820;6.494;2022-07-29T04:00:24;1.30;;;1.20;;
46308;SDS011;32037;50.820;6.494;2022-07-29T04:02:55;1.10;;;1.00;;
46308;SDS011;32037;50.820;6.494;2022-07-29T04:05:23;2.13;;;0.90;;
46308;SDS011;32037;50.820;6.494;2022-07-29T04:07:51;2.00;;;1.00;;
46308;SDS011;32037;50.820;6.494;2022-07-29T04:10:19;1.20;;;0.90;;
46308;SDS011;32037;50.820;6.494;2022-07-29T04:12:57;2.10;;;1.20;;
46308;SDS011;32037;50.820;6.494;2022-07-29T04:15:25;1.30;;;0.90;;
46308;SDS011;32037;50.820;6.494;2022-07-29T04:17:58;1.00;;;1.00;;
46308;SDS011;32037;50.820;6.494;2022-07-29T04:20:26;1.10;;;1.00;;
46308;SDS011;32037;50.820;6.494;2022-07-29T04:22:54;1.20;;;1.00;;
46308;SDS011;32037;50.820;6.494;2022-07-29T04:25:22;1.00;;;0.90;;
46308;SDS011;32037;50.820;6.494;2022-07-29T04:27:50;0.90;;;0.70;;
46308;SDS011;32037;50.820;6.494;2022-07-29T04:30:30;1.33;;;0.80;;
46308;SDS011;32037;50.820;6.494;2022-07-29T04:33:01;2.13;;;1.20;;
46308;SDS011;32037;50.820;6.494;2022-07-29T04:35:31;1.20;;;0.97;;
46308;SDS011;32037;50.820;6.494;2022-07-29T04:38:04;2.93;;;1.30;;
46308;SDS011;32037;50.820;6.494;2022-07-29T04:40:41;1.20;;;0.83;;
46308;SDS011;32037;50.820;6.494;2022-07-29T04:43:09;1.53;;;1.43;;
46308;SDS011;32037;50.820;6.494;2022-07-29T04:45:39;1.30;;;1.00;;
46308;SDS011;32037;50.820;6.494;2022-07-29T04:48:08;1.20;;;1.10;;
46308;SDS011;32037;50.820;6.494;2022-07-29T04:50:37;1.30;;;1.03;;
46308;SDS011;32037;50.820;6.494;2022-07-29T04:53:05;1.70;;;1.00;;
46308;SDS011;32037;50.820;6.494;2022-07-29T04:55:33;1.10;;;1.00;;
46308;SDS011;32037;50.820;6.494;2022-07-29T04:58:04;1.23;;;1.07;;
46308;SDS011;32037;50.820;6.494;2022-07-29T05:00:33;1.10;;;1.00;;
46308;SDS011;32037;50.820;6.494;2022-07-29T05:03:01;1.00;;;0.90;;
46308;SDS011;32037;50.820;6.494;2022-07-29T05:05:31;1.23;;;1.00;;
46308;SDS011;32037;50.820;6.494;2022-07-29T05:07:59;1.03;;;0.93;;
46308;SDS011;32037;50.820;6.494;2022-07-29T05:10:27;1.63;;;1.10;;
46308;SDS011;32037;50.820;6.494;2022-07-29T05:12:55;1.40;;;1.03;;
46308;SDS011;32037;50.820;6.494;2022-07-29T05:15:23;1.07;;;0.97;;
46308;SDS011;32037;50.820;6.494;2022-07-29T05:17:52;0.80;;;0.80;;
46308;SDS011;32037;50.820;6.494;2022-07-29T05:20:20;1.83;;;1.20;;
46308;SDS011;32037;50.820;6.494;2022-07-29T05:22:54;2.10;;;1.00;;
46308;SDS011;32037;50.820;6.494;2022-07-29T05:25:22;1.47;;;1.13;;
46308;SDS011;32037;50.820;6.494;2022-07-29T05:28:09;2.60;;;1.20;;
46308;SDS011;32037;50.820;6.494;2022-07-29T05:30:37;2.20;;;1.00;;
46308;SDS011;32037;50.820;6.494;2022-07-29T05:33:05;1.10;;;1.00;;
46308;SDS011;32037;50.820;6.494;2022-07-29T05:35:54;1.60;;;1.00;;
46308;SDS011;32037;50.820;6.494;2022-07-29T05:38:28;1.47;;;1.13;;
46308;SDS011;32037;50.820;6.494;2022-07-29T05:40:57;1.40;;;0.90;;
46308;SDS011;32037;50.820;6.494;2022-07-29T05:43:26;1.50;;;1.10;;
46308;SDS011;32037;50.820;6.494;2022-07-29T05:45:54;1.30;;;1.10;;
46308;SDS011;32037;50.820;6.494;2022-07-29T05:48:23;1.97;;;1.20;;
46308;SDS011;32037;50.820;6.494;2022-07-29T05:50:51;2.13;;;1.23;;
46308;SDS011;32037;50.820;6.494;2022-07-29T05:53:20;1.67;;;1.20;;
46308;SDS011;32037;50.820;6.494;2022-07-29T05:55:50;2.43;;;1.47;;
46308;SDS011;32037;50.820;6.494;2022-07-29T05:58:18;1.53;;;1.07;;
46308;SDS011;32037;50.820;6.494;2022-07-29T06:00:47;1.73;;;1.27;;
46308;SDS011;32037;50.820;6.494;2022-07-29T06:03:15;2.70;;;1.20;;
46308;SDS011;32037;50.820;6.494;2022-07-29T06:05:43;0.77;;;0.77;;
46308;SDS011;32037;50.820;6.494;2022-07-29T06:08:12;1.13;;;1.00;;
46308;SDS011;32037;50.820;6.494;2022-07-29T06:10:40;2.20;;;0.90;;
46308;SDS011;32037;50.820;6.494;2022-07-29T06:13:10;1.13;;;1.00;;
46308;SDS011;32037;50.820;6.494;2022-07-29T06:15:38;1.27;;;1.00;;
46308;SDS011;32037;50.820;6.494;2022-07-29T06:18:06;1.30;;;1.00;;
46308;SDS011;32037;50.820;6.494;2022-07-29T06:20:36;1.00;;;0.90;;
46308;SDS011;32037;50.820;6.494;2022-07-29T06:23:04;2.37;;;1.40;;
46308;SDS011;32037;50.820;6.494;2022-07-29T06:25:33;1.23;;;1.13;;
46308;SDS011;32037;50.820;6.494;2022-07-29T06:28:03;1.20;;;1.10;;
46308;SDS011;32037;50.820;6.494;2022-07-29T06:30:33;2.07;;;1.03;;
46308;SDS011;32037;50.820;6.494;2022-07-29T06:33:01;2.40;;;1.30;;
46308;SDS011;32037;50.820;6.494;2022-07-29T06:35:29;3.80;;;1.23;;
46308;SDS011;32037;50.820;6.494;2022-07-29T06:38:07;1.10;;;1.00;;
46308;SDS011;32037;50.820;6.494;2022-07-29T06:40:56;1.10;;;1.00;;
46308;SDS011;32037;50.820;6.494;2022-07-29T06:43:32;2.07;;;1.30;;
46308;SDS011;32037;50.820;6.494;2022-07-29T06:46:19;1.20;;;0.83;;
46308;SDS011;32037;50.820;6.494;2022-07-29T06:48:48;1.43;;;1.20;;
46308;SDS011;32037;50.820;6.494;2022-07-29T06:51:17;1.53;;;1.13;;
46308;SDS011;32037;50.820;6.494;2022-07-29T06:53:48;1.17;;;1.00;;
46308;SDS011;32037;50.820;6.494;2022-07-29T06:56:28;2.80;;;1.13;;
46308;SDS011;32037;50.820;6.494;2022-07-29T06:58:57;1.30;;;0.90;;
46308;SDS011;32037;50.820;6.494;2022-07-29T07:01:28;3.60;;;1.00;;
46308;SDS011;32037;50.820;6.494;2022-07-29T07:03:57;1.90;;;1.20;;
46308;SDS011;32037;50.820;6.494;2022-07-29T07:06:25;1.63;;;1.20;;
46308;SDS011;32037;50.820;6.494;2022-07-29T07:08:54;1.23;;;1.00;;
46308;SDS011;32037;50.820;6.494;2022-07-29T07:11:22;1.00;;;0.90;;
46308;SDS011;32037;50.820;6.494;2022-07-29T07:13:50;1.40;;;1.30;;
46308;SDS011;32037;50.820;6.494;2022-07-29T07:16:19;1.37;;;1.27;;
46308;SDS011;32037;50.820;6.494;2022-07-29T07:18:48;1.67;;;1.30;;
46308;SDS011;32037;50.820;6.494;2022-07-29T07:21:17;1.40;;;1.00;;
46308;SDS011;32037;50.820;6.494;2022-07-29T07:23:45;2.00;;;1.60;;
46308;SDS011;32037;50.820;6.494;2022-07-29T07:26:14;1.90;;;1.30;;
46308;SDS011;32037;50.820;6.494;2022-07-29T07:28:42;2.00;;;1.20;;
46308;SDS011;32037;50.820;6.494;2022-07-29T07:31:10;1.33;;;1.10;;
46308;SDS011;32037;50.820;6.494;2022-07-29T07:33:39;2.90;;;1.20;;
46308;SDS011;32037;50.820;6.494;2022-07-29T07:36:08;1.23;;;1.13;;
46308;SDS011;32037;50.820;6.494;2022-07-29T07:38:38;1.67;;;1.50;;
46308;SDS011;32037;50.820;6.494;2022-07-29T07:41:06;1.30;;;1.20;;
46308;SDS011;32037;50.820;6.494;2022-07-29T07:43:34;2.13;;;1.40;;
46308;SDS011;32037;50.820;6.494;2022-07-29T07:46:03;6.93;;;1.00;;
46308;SDS011;32037;50.820;6.494;2022-07-29T07:48:32;3.80;;;1.90;;
46308;SDS011;32037;50.820;6.494;2022-07-29T07:51:01;2.57;;;1.50;;
46308;SDS011;32037;50.820;6.494;2022-07-29T07:53:31;2.30;;;1.80;;
46308;SDS011;32037;50.820;6.494;2022-07-29T07:55:59;2.77;;;1.40;;
46308;SDS011;32037;50.820;6.494;2022-07-29T07:58:38;3.73;;;1.60;;
46308;SDS011;32037;50.820;6.494;2022-07-29T08:01:06;4.47;;;1.70;;
46308;SDS011;32037;50.820;6.494;2022-07-29T08:03:35;8.03;;;1.70;;
46308;SDS011;32037;50.820;6.494;2022-07-29T08:06:03;3.33;;;2.00;;
46308;SDS011;32037;50.820;6.494;2022-07-29T08:08:33;3.80;;;1.60;;
46308;SDS011;32037;50.820;6.494;2022-07-29T08:11:01;2.07;;;1.60;;
46308;SDS011;32037;50.820;6.494;2022-07-29T08:13:35;1.40;;;1.30;;
46308;SDS011;32037;50.820;6.494;2022-07-29T08:16:05;5.53;;;1.50;;
46308;SDS011;32037;50.820;6.494;2022-07-29T08:18:44;2.87;;;1.60;;
46308;SDS011;32037;50.820;6.494;2022-07-29T08:21:13;1.37;;;1.20;;
46308;SDS011;32037;50.820;6.494;2022-07-29T08:23:44;2.20;;;1.67;;
46308;SDS011;32037;50.820;6.494;2022-07-29T08:26:27;1.87;;;1.30;;
46308;SDS011;32037;50.820;6.494;2022-07-29T08:28:55;1.17;;;1.07;;
46308;SDS011;32037;50.820;6.494;2022-07-29T08:31:23;2.07;;;1.50;;
46308;SDS011;32037;50.820;6.494;2022-07-29T08:33:52;1.40;;;1.30;;
46308;SDS011;32037;50.820;6.494;2022-07-29T08:36:24;2.20;;;1.80;;
46308;SDS011;32037;50.820;6.494;2022-07-29T08:38:53;2.30;;;1.60;;
46308;SDS011;32037;50.820;6.494;2022-07-29T08:41:22;1.57;;;1.43;;
46308;SDS011;32037;50.820;6.494;2022-07-29T08:43:50;2.30;;;1.70;;
46308;SDS011;32037;50.820;6.494;2022-07-29T08:46:20;1.67;;;1.57;;
46308;SDS011;32037;50.820;6.494;2022-07-29T08:48:49;2.10;;;1.50;;
46308;SDS011;32037;50.820;6.494;2022-07-29T08:51:19;4.00;;;1.93;;
46308;SDS011;32037;50.820;6.494;2022-07-29T08:53:48;3.50;;;1.77;;
46308;SDS011;32037;50.820;6.494;2022-07-29T08:56:19;3.37;;;2.30;;
46308;SDS011;32037;50.820;6.494;2022-07-29T08:58:48;2.90;;;2.23;;
46308;SDS011;32037;50.820;6.494;2022-07-29T09:01:21;7.07;;;3.30;;
46308;SDS011;32037;50.820;6.494;2022-07-29T09:04:10;6.57;;;3.50;;
46308;SDS011;32037;50.820;6.494;2022-07-29T09:06:43;4.03;;;2.70;;
46308;SDS011;32037;50.820;6.494;2022-07-29T09:09:12;4.63;;;2.50;;
46308;SDS011;32037;50.820;6.494;2022-07-29T09:11:43;4.77;;;3.10;;
46308;SDS011;32037;50.820;6.494;2022-07-29T09:14:12;3.53;;;2.50;;
46308;SDS011;32037;50.820;6.494;2022-07-29T09:16:45;6.43;;;2.30;;
46308;SDS011;32037;50.820;6.494;2022-07-29T09:19:20;3.50;;;2.30;;
46308;SDS011;32037;50.820;6.494;2022-07-29T09:21:49;3.83;;;2.00;;
46308;SDS011;32037;50.820;6.494;2022-07-29T09:24:39;4.47;;;2.20;;
46308;SDS011;32037;50.820;6.494;2022-07-29T09:27:17;2.87;;;1.90;;
46308;SDS011;32037;50.820;6.494;2022-07-29T09:29:57;3.50;;;2.50;;
46308;SDS011;32037;50.820;6.494;2022-07-29T09:32:27;2.97;;;2.10;;
46308;SDS011;32037;50.820;6.494;2022-07-29T09:35:15;3.93;;;2.30;;
46308;SDS011;32037;50.820;6.494;2022-07-29T09:37:47;2.90;;;1.90;;
46308;SDS011;32037;50.820;6.494;2022-07-29T09:40:17;2.10;;;1.90;;
46308;SDS011;32037;50.820;6.494;2022-07-29T09:42:49;3.83;;;2.40;;
46308;SDS011;32037;50.820;6.494;2022-07-29T09:45:26;2.40;;;2.20;;
46308;SDS011;32037;50.820;6.494;2022-07-29T09:47:56;2.40;;;2.20;;
46308;SDS011;32037;50.820;6.494;2022-07-29T09:50:37;4.40;;;2.17;;
46308;SDS011;32037;50.820;6.494;2022-07-29T09:53:06;2.13;;;1.90;;
46308;SDS011;32037;50.820;6.494;2022-07-29T09:58:33;2.50;;;2.30;;
46308;SDS011;32037;50.820;6.494;2022-07-29T10:01:02;3.20;;;1.67;;
46308;SDS011;32037;50.820;6.494;2022-07-29T10:03:31;2.73;;;1.53;;
46308;SDS011;32037;50.820;6.494;2022-07-29T10:06:06;1.90;;;1.70;;
46308;SDS011;32037;50.820;6.494;2022-07-29T10:08:36;3.60;;;2.27;;
46308;SDS011;32037;50.820;6.494;2022-07-29T10:11:09;4.53;;;2.40;;
46308;SDS011;32037;50.820;6.494;2022-07-29T10:13:40;2.63;;;2.40;;
46308;SDS011;32037;50.820;6.494;2022-07-29T10:16:09;4.50;;;3.00;;
46308;SDS011;32037;50.820;6.494;2022-07-29T10:18:40;2.27;;;2.03;;
46308;SDS011;32037;50.820;6.494;2022-07-29T10:21:10;4.47;;;2.53;;
46308;SDS011;32037;50.820;6.494;2022-07-29T10:23:58;2.13;;;1.93;;
46308;SDS011;32037;50.820;6.494;2022-07-29T10:26:27;2.10;;;1.90;;
46308;SDS011;32037;50.820;6.494;2022-07-29T10:28:58;3.33;;;2.20;;
46308;SDS011;32037;50.820;6.494;2022-07-29T10:31:28;3.00;;;2.07;;
46308;SDS011;32037;50.820;6.494;2022-07-29T10:34:06;2.23;;;1.63;;
46308;SDS011;32037;50.820;6.494;2022-07-29T10:36:46;2.57;;;2.37;;
46308;SDS011;32037;50.820;6.494;2022-07-29T10:39:30;2.80;;;2.00;;
46308;SDS011;32037;50.820;6.494;2022-07-29T10:42:17;4.27;;;1.90;;
46308;SDS011;32037;50.820;6.494;2022-07-29T10:45:02;3.33;;;2.40;;
46308;SDS011;32037;50.820;6.494;2022-07-29T10:47:43;3.33;;;2.20;;
46308;SDS011;32037;50.820;6.494;2022-07-29T10:50:55;2.83;;;2.30;;
46308;SDS011;32037;50.820;6.494;2022-07-29T10:56:23;2.57;;;2.37;;
46308;SDS011;32037;50.820;6.494;2022-07-29T11:02:02;3.00;;;2.63;;
46308;SDS011;32037;50.820;6.494;2022-07-29T11:05:20;2.50;;;2.30;;
46308;SDS011;32037;50.820;6.494;2022-07-29T11:08:18;4.30;;;2.40;;
46308;SDS011;32037;50.820;6.494;2022-07-29T11:10:53;3.53;;;2.50;;
46308;SDS011;32037;50.820;6.494;2022-07-29T11:13:47;2.60;;;2.30;;
46308;SDS011;32037;50.820;6.494;2022-07-29T11:16:19;2.50;;;2.30;;
46308;SDS011;32037;50.820;6.494;2022-07-29T11:21:57;2.30;;;2.10;;
46308;SDS011;32037;50.820;6.494;2022-07-29T11:24:27;2.37;;;2.23;;
46308;SDS011;32037;50.820;6.494;2022-07-29T11:27:07;2.67;;;2.47;;
46308;SDS011;32037;50.820;6.494;2022-07-29T11:29:39;5.20;;;2.60;;
46308;SDS011;32037;50.820;6.494;2022-07-29T11:32:20;3.40;;;2.50;;
46308;SDS011;32037;50.820;6.494;2022-07-29T11:37:46;3.17;;;2.53;;
46308;SDS011;32037;50.820;6.494;2022-07-29T11:40:21;3.37;;;3.07;;
46308;SDS011;32037;50.820;6.494;2022-07-29T11:42:52;4.03;;;2.50;;
46308;SDS011;32037;50.820;6.494;2022-07-29T11:45:22;3.20;;;2.90;;
46308;SDS011;32037;50.820;6.494;2022-07-29T11:48:17;2.60;;;2.07;;
46308;SDS011;32037;50.820;6.494;2022-07-29T11:50:55;3.07;;;2.50;;
46308;SDS011;32037;50.820;6.494;2022-07-29T11:53:25;6.00;;;3.53;;
46308;SDS011;32037;50.820;6.494;2022-07-29T11:55:59;8.37;;;3.87;;
46308;SDS011;32037;50.820;6.494;2022-07-29T11:58:30;7.40;;;3.70;;
46308;SDS011;32037;50.820;6.494;2022-07-29T12:00:58;5.30;;;3.10;;
46308;SDS011;32037;50.820;6.494;2022-07-29T12:03:30;6.17;;;2.70;;
46308;SDS011;32037;50.820;6.494;2022-07-29T12:06:02;5.60;;;2.70;;
46308;SDS011;32037;50.820;6.494;2022-07-29T12:08:59;3.77;;;2.87;;
46308;SDS011;32037;50.820;6.494;2022-07-29T12:11:30;7.97;;;2.87;;
46308;SDS011;32037;50.820;6.494;2022-07-29T12:13:58;3.00;;;2.70;;
46308;SDS011;32037;50.820;6.494;2022-07-29T12:16:34;2.67;;;2.40;;
46308;SDS011;32037;50.820;6.494;2022-07-29T12:19:03;2.73;;;2.53;;
46308;SDS011;32037;50.820;6.494;2022-07-29T12:21:43;2.83;;;2.50;;
46308;SDS011;32037;50.820;6.494;2022-07-29T12:24:23;3.40;;;2.50;;
46308;SDS011;32037;50.820;6.494;2022-07-29T12:26:53;3.50;;;2.63;;
46308;SDS011;32037;50.820;6.494;2022-07-29T12:29:22;3.30;;;2.83;;
46308;SDS011;32037;50.820;6.494;2022-07-29T12:32:00;4.93;;;2.80;;
46308;SDS011;32037;50.820;6.494;2022-07-29T12:34:31;3.30;;;2.50;;
46308;SDS011;32037;50.820;6.494;2022-07-29T12:36:59;3.33;;;2.80;;
46308;SDS011;32037;50.820;6.494;2022-07-29T12:39:29;3.50;;;2.40;;
46308;SDS011;32037;50.820;6.494;2022-07-29T12:41:57;3.33;;;3.03;;
46308;SDS011;32037;50.820;6.494;2022-07-29T12:44:43;2.63;;;2.30;;
46308;SDS011;32037;50.820;6.494;2022-07-29T12:47:12;3.40;;;2.70;;
46308;SDS011;32037;50.820;6.494;2022-07-29T12:49:41;3.00;;;2.63;;
46308;SDS011;32037;50.820;6.494;2022-07-29T12:55:00;3.60;;;2.73;;
46308;SDS011;32037;50.820;6.494;2022-07-29T12:57:30;2.53;;;2.33;;
46308;SDS011;32037;50.820;6.494;2022-07-29T13:00:06;3.47;;;2.40;;
46308;SDS011;32037;50.820;6.494;2022-07-29T13:02:38;2.37;;;2.00;;
46308;SDS011;32037;50.820;6.494;2022-07-29T13:05:08;3.13;;;1.97;;
46308;SDS011;32037;50.820;6.494;2022-07-29T13:07:38;4.70;;;2.20;;
46308;SDS011;32037;50.820;6.494;2022-07-29T13:10:22;2.33;;;1.93;;
46308;SDS011;32037;50.820;6.494;2022-07-29T13:13:00;2.63;;;2.17;;
46308;SDS011;32037;50.820;6.494;2022-07-29T13:15:29;3.50;;;2.47;;
46308;SDS011;32037;50.820;6.494;2022-07-29T13:17:58;1.73;;;1.63;;
46308;SDS011;32037;50.820;6.494;2022-07-29T13:20:27;4.33;;;2.17;;
46308;SDS011;32037;50.820;6.494;2022-07-29T13:22:56;3.43;;;2.63;;
46308;SDS011;32037;50.820;6.494;2022-07-29T13:25:28;2.20;;;2.00;;
46308;SDS011;32037;50.820;6.494;2022-07-29T13:27:58;2.20;;;2.00;;
46308;SDS011;32037;50.820;6.494;2022-07-29T13:30:26;2.80;;;2.07;;
46308;SDS011;32037;50.820;6.494;2022-07-29T13:32:55;3.37;;;2.30;;
46308;SDS011;32037;50.820;6.494;2022-07-29T13:35:23;2.13;;;1.93;;
46308;SDS011;32037;50.820;6.494;2022-07-29T13:37:51;2.90;;;2.07;;
46308;SDS011;32037;50.820;6.494;2022-07-29T13:40:19;3.57;;;2.30;;
46308;SDS011;32037;50.820;6.494;2022-07-29T13:42:49;2.40;;;2.20;;
46308;SDS011;32037;50.820;6.494;2022-07-29T13:45:17;2.40;;;1.93;;
46308;SDS011;32037;50.820;6.494;2022-07-29T13:47:45;2.17;;;1.83;;
46308;SDS011;32037;50.820;6.494;2022-07-29T13:50:14;2.43;;;2.13;;
46308;SDS011;32037;50.820;6.494;2022-07-29T13:52:42;2.90;;;2.37;;
46308;SDS011;32037;50.820;6.494;2022-07-29T13:55:10;3.23;;;2.03;;
46308;SDS011;32037;50.820;6.494;2022-07-29T13:57:38;2.40;;;2.20;;
46308;SDS011;32037;50.820;6.494;2022-07-29T14:00:09;2.60;;;2.00;;
46308;SDS011;32037;50.820;6.494;2022-07-29T14:02:37;3.77;;;2.27;;
46308;SDS011;32037;50.820;6.494;2022-07-29T14:05:06;3.07;;;2.03;;
46308;SDS011;32037;50.820;6.494;2022-07-29T14:07:36;2.40;;;2.20;;
46308;SDS011;32037;50.820;6.494;2022-07-29T14:10:05;5.30;;;2.60;;
46308;SDS011;32037;50.820;6.494;2022-07-29T14:12:33;2.30;;;2.10;;
46308;SDS011;32037;50.820;6.494;2022-07-29T14:15:01;2.20;;;2.10;;
46308;SDS011;32037;50.820;6.494;2022-07-29T14:17:31;2.60;;;2.00;;
46308;SDS011;32037;50.820;6.494;2022-07-29T14:19:59;2.57;;;2.13;;
46308;SDS011;32037;50.820;6.494;2022-07-29T14:22:27;2.07;;;1.80;;
46308;SDS011;32037;50.820;6.494;2022-07-29T14:24:56;3.70;;;2.20;;
46308;SDS011;32037;50.820;6.494;2022-07-29T14:27:32;2.17;;;1.80;;
46308;SDS011;32037;50.820;6.494;2022-07-29T14:30:04;2.03;;;1.83;;
46308;SDS011;32037;50.820;6.494;2022-07-29T14:32:34;2.33;;;2.13;;
46308;SDS011;32037;50.820;6.494;2022-07-29T14:35:02;2.00;;;1.90;;
46308;SDS011;32037;50.820;6.494;2022-07-29T14:37:30;1.87;;;1.70;;
46308;SDS011;32037;50.820;6.494;2022-07-29T14:40:06;2.27;;;1.67;;
46308;SDS011;32037;50.820;6.494;2022-07-29T14:42:36;1.77;;;1.67;;
46308;SDS011;32037;50.820;6.494;2022-07-29T14:45:05;2.50;;;2.27;;
46308;SDS011;32037;50.820;6.494;2022-07-29T14:47:35;1.80;;;1.70;;
46308;SDS011;32037;50.820;6.494;2022-07-29T14:50:04;2.37;;;2.17;;
46308;SDS011;32037;50.820;6.494;2022-07-29T14:52:33;2.10;;;2.00;;
46308;SDS011;32037;50.820;6.494;2022-07-29T14:55:02;2.30;;;2.10;;
46308;SDS011;32037;50.820;6.494;2022-07-29T14:57:44;3.10;;;2.40;;
46308;SDS011;32037;50.820;6.494;2022-07-29T15:00:13;2.03;;;1.93;;
46308;SDS011;32037;50.820;6.494;2022-07-29T15:02:43;1.77;;;1.67;;
46308;SDS011;32037;50.820;6.494;2022-07-29T15:05:27;2.10;;;1.87;;
46308;SDS011;32037;50.820;6.494;2022-07-29T15:07:55;1.60;;;1.50;;
46308;SDS011;32037;50.820;6.494;2022-07-29T15:10:24;2.33;;;2.23;;
46308;SDS011;32037;50.820;6.494;2022-07-29T15:12:53;6.20;;;2.40;;
46308;SDS011;32037;50.820;6.494;2022-07-29T15:15:21;2.07;;;1.83;;
46308;SDS011;32037;50.820;6.494;2022-07-29T15:17:51;2.17;;;2.00;;
46308;SDS011;32037;50.820;6.494;2022-07-29T15:20:19;2.40;;;2.20;;
46308;SDS011;32037;50.820;6.494;2022-07-29T15:22:47;2.63;;;1.90;;
46308;SDS011;32037;50.820;6.494;2022-07-29T15:25:15;1.70;;;1.60;;
46308;SDS011;32037;50.820;6.494;2022-07-29T15:27:43;2.03;;;1.90;;
46308;SDS011;32037;50.820;6.494;2022-07-29T15:30:18;2.53;;;2.33;;
46308;SDS011;32037;50.820;6.494;2022-07-29T15:33:01;2.47;;;2.10;;